Accueil
METAR-TAF:

METAR-TAF

Aéroports :

Chambery / Aix-Les-Bains, France

Aéroport de Chambéry - Savoie

latitude: 45-39N, longitude: 005-53E, altitude: 235 m

Observation

Le bulletin a été fait il y a 24 minutes, à 09:30 UTC
Vent 3 kt de nord, variant entre nord-ouest et est/nord-est
Température 25°C
Humidité 65%
Pression 1020 hPa
Visibilité 10 km ou plus
pas de nuages en-dessous de 1500 mètres et pas de cumulonimbus.

METAR: LFLB 170930Z AUTO 01003KT 320V060 CAVOK 25/18 Q1020 NOSIG

Heure: 11:54 (09:54 UTC)

Prévision

Le bulletin a été fait il y a 4 heures et 54 minutes, à 05:00 UTC
Prévision valable du 17 à 06 UTC au 18 à 06 UTC
Vent 2 kt de direction variable
Visibilité 10 km ou plus
pas de nuages en-dessous de 1500 mètres et pas de cumulonimbus.
Temporairement
du 17 à 09 UTC au 17 à 16 UTC
Vent 5 kt de nord/nord-ouest

TAF: LFLB 170500Z 1706/1806 VRB02KT CAVOK TEMPO 1709/1716 34005KT

Observations et prévisions météorologiques de plus de 4000 aéroports (messages METAR et TAF).

Les stations disponibles sont représentées par des disques jaunes et rouges sur la carte.

Passer la souris dessus pour voir le nom de la station.

Cliquer dessus pour voir les observations et prévisions météorologiques.

Pour changer de carte: cliquez sur les boutons verts avec une croix noire pour zoomer, sur le bouton vert avec un tiret pour effectuer un zoom arrière, ou sur les flèches vertes pour les cartes adjacentes.


METAR-TAF: